Terminal Aerodrome Forecast
Issued by NWS

Home | Current Version | Previous Version | Text Only | Print | Product List | Glossary On
Versions: 1 2 3 4 5 6 7 8 9 10 11 12 13 14 15 16 17 18 19 20 21 22 23 24 25 26 27 28 29 30
000
FTUS45 KGJT 262147 AAA
TAFMTJ
TAF AMD
KMTJ 262147Z 2622/2718 22015G25KT P6SM FEW200
     FM270300 18007KT P6SM FEW200
     FM270600 15007KT P6SM SCT200
     FM271000 19006KT P6SM FEW200
     FM271500 30004KT P6SM SCT120=

USA.gov is the U.S. government's official web portal to all federal, state and local government web resources and services.